createdAt,value
2018-06-18T00:00:35.974Z,19.70
2018-06-18T00:03:03.512Z,14.53
2018-06-18T00:05:31.029Z,18.97
2018-06-18T00:07:58.552Z,16.60
2018-06-18T00:10:26.080Z,21.40
2018-06-18T00:12:53.630Z,18.83
2018-06-18T00:15:21.196Z,12.23
2018-06-18T00:17:48.708Z,15.10
2018-06-18T00:20:16.277Z,17.43
2018-06-18T00:22:43.820Z,15.87
2018-06-18T00:25:11.354Z,15.60
2018-06-18T00:27:38.930Z,13.90
2018-06-18T00:30:06.468Z,16.83
2018-06-18T00:32:33.982Z,13.33
2018-06-18T00:35:01.515Z,12.13
2018-06-18T00:37:29.091Z,15.47
2018-06-18T00:39:56.654Z,13.60
2018-06-18T00:42:24.254Z,14.20
2018-06-18T00:44:51.769Z,14.33
2018-06-18T00:47:19.347Z,14.17
2018-06-18T00:49:46.877Z,14.80
2018-06-18T00:52:14.387Z,13.40
2018-06-18T00:54:41.926Z,18.90
2018-06-18T00:57:09.504Z,14.33
2018-06-18T00:59:37.082Z,21.70
2018-06-18T01:02:04.648Z,15.80
2018-06-18T01:04:32.189Z,16.07
2018-06-18T01:06:59.705Z,24.10
2018-06-18T01:09:27.208Z,21.40
2018-06-18T01:11:54.740Z,16.63
2018-06-18T01:14:23.187Z,19.37
2018-06-18T01:16:50.719Z,19.60
2018-06-18T01:19:18.243Z,18.90
2018-06-18T01:21:45.831Z,23.13
2018-06-18T01:25:19.127Z,23.67
2018-06-18T01:27:46.655Z,19.07
2018-06-18T01:30:14.199Z,17.43
2018-06-18T01:32:41.808Z,21.50
2018-06-18T01:35:09.446Z,17.40
2018-06-18T01:37:36.973Z,18.37
2018-06-18T01:40:04.567Z,18.17
2018-06-18T01:42:32.184Z,24.60
2018-06-18T01:44:59.712Z,18.07
2018-06-18T01:47:27.264Z,13.53
2018-06-18T01:49:54.793Z,16.80
2018-06-18T01:52:22.322Z,15.17
2018-06-18T01:54:49.836Z,15.73
2018-06-18T01:57:17.412Z,15.60
2018-06-18T01:59:44.949Z,17.93
2018-06-18T02:02:12.485Z,25.80
2018-06-18T02:04:40.013Z,24.30
2018-06-18T02:07:07.549Z,20.77
2018-06-18T02:09:35.075Z,19.97
2018-06-18T02:12:02.613Z,17.43
2018-06-18T02:14:30.098Z,14.63
2018-06-18T02:16:57.607Z,16.80
2018-06-18T02:19:25.128Z,13.10
2018-06-18T02:21:52.705Z,14.70
2018-06-18T02:24:20.814Z,17.00
2018-06-18T02:26:52.926Z,19.53
2018-06-18T02:29:26.061Z,13.93
2018-06-18T02:31:59.165Z,13.43
2018-06-18T02:34:32.404Z,15.90
2018-06-18T02:39:10.287Z,14.60
2018-06-18T02:41:37.802Z,17.43
2018-06-18T02:44:05.385Z,19.03
2018-06-18T02:46:32.988Z,19.90
2018-06-18T02:49:00.523Z,13.00
2018-06-18T02:51:28.050Z,15.83
2018-06-18T02:53:55.552Z,16.90
2018-06-18T02:56:57.183Z,12.60
2018-06-18T02:59:24.788Z,15.70
2018-06-18T03:01:52.389Z,13.30
2018-06-18T03:04:19.928Z,13.83
2018-06-18T03:06:47.534Z,16.90
2018-06-18T03:09:15.053Z,14.53
2018-06-18T03:11:42.568Z,18.47
2018-06-18T03:14:10.106Z,14.47
2018-06-18T03:16:37.732Z,16.37
2018-06-18T03:19:10.958Z,15.23
2018-06-18T03:21:44.123Z,14.10
2018-06-18T03:24:17.377Z,14.50
2018-06-18T03:26:50.450Z,17.17
2018-06-18T03:29:23.189Z,15.00
2018-06-18T03:31:51.856Z,15.47
2018-06-18T03:34:19.377Z,21.90
2018-06-18T03:36:46.997Z,14.80
2018-06-18T03:39:14.568Z,13.00
2018-06-18T03:41:44.565Z,19.47
2018-06-18T03:44:18.266Z,12.50
2018-06-18T03:46:45.841Z,15.00
2018-06-18T03:49:13.363Z,13.50
2018-06-18T03:51:40.892Z,20.20
2018-06-18T03:54:08.399Z,16.13
2018-06-18T03:56:35.930Z,13.47
2018-06-18T03:59:03.502Z,14.77
2018-06-18T04:01:48.969Z,13.90
2018-06-18T04:04:22.164Z,14.10
2018-06-18T04:06:55.383Z,13.23
2018-06-18T04:09:28.611Z,13.40
2018-06-18T04:12:01.801Z,14.30
2018-06-18T04:14:29.328Z,17.07
2018-06-18T04:16:56.837Z,22.90
2018-06-18T04:19:24.389Z,14.00
2018-06-18T04:21:51.905Z,17.20
2018-06-18T04:24:19.439Z,10.60
2018-06-18T04:26:46.949Z,14.50
2018-06-18T04:29:14.478Z,13.63
2018-06-18T04:31:42.013Z,12.27
2018-06-18T04:34:22.419Z,21.93
2018-06-18T04:36:50.001Z,14.90
2018-06-18T04:39:17.527Z,9.30
2018-06-18T04:41:50.908Z,19.57
2018-06-18T04:44:24.104Z,8.43
2018-06-18T04:46:57.248Z,8.40
2018-06-18T04:49:30.459Z,11.23
2018-06-18T04:51:58.016Z,8.53
2018-06-18T04:54:25.560Z,12.33
2018-06-18T04:56:53.071Z,9.20
2018-06-18T04:59:20.670Z,9.53
2018-06-18T05:01:48.174Z,10.60
2018-06-18T05:04:15.725Z,18.90
2018-06-18T05:06:43.262Z,6.63
2018-06-18T05:09:37.193Z,11.00
2018-06-18T05:12:04.716Z,10.37
2018-06-18T05:14:32.299Z,7.97
2018-06-18T05:16:59.846Z,8.43
2018-06-18T05:19:27.353Z,8.50
2018-06-18T05:21:54.884Z,13.90
2018-06-18T05:24:22.430Z,10.23
2018-06-18T05:26:51.860Z,9.50
2018-06-18T05:29:20.981Z,8.47
2018-06-18T05:31:48.524Z,15.50
2018-06-18T05:34:18.525Z,11.43
2018-06-18T05:36:46.180Z,8.50
2018-06-18T05:39:13.728Z,13.50
2018-06-18T05:41:41.295Z,20.03
2018-06-18T05:44:08.849Z,10.73
2018-06-18T05:46:36.416Z,11.63
2018-06-18T05:49:04.016Z,15.40
2018-06-18T05:51:31.541Z,15.90
2018-06-18T05:53:59.076Z,14.30
2018-06-18T05:56:26.640Z,11.60
2018-06-18T05:58:54.322Z,11.23
2018-06-18T06:01:21.867Z,11.33
2018-06-18T06:03:49.406Z,15.77
2018-06-18T06:06:16.940Z,11.73
2018-06-18T06:08:44.462Z,12.90
2018-06-18T06:11:11.997Z,23.47
2018-06-18T06:13:39.537Z,14.40
2018-06-18T06:16:07.043Z,10.93
2018-06-18T06:18:34.607Z,11.83
2018-06-18T06:21:04.353Z,12.53
2018-06-18T06:23:31.866Z,11.70
2018-06-18T06:25:59.405Z,12.90
2018-06-18T06:28:26.974Z,16.73
2018-06-18T06:30:54.625Z,17.00
2018-06-18T06:33:23.291Z,14.87
2018-06-18T06:35:51.145Z,16.93
2018-06-18T06:38:18.703Z,15.00
2018-06-18T06:40:46.245Z,9.63
2018-06-18T06:43:13.773Z,12.00
2018-06-18T06:45:41.291Z,14.80
2018-06-18T06:48:08.859Z,14.27
2018-06-18T06:50:36.399Z,14.57
2018-06-18T06:53:03.941Z,13.90
2018-06-18T06:55:31.502Z,10.97
2018-06-18T06:57:59.304Z,12.97
2018-06-18T07:00:26.842Z,13.37
2018-06-18T07:02:54.358Z,12.10
2018-06-18T07:05:21.931Z,19.67
2018-06-18T07:07:49.478Z,19.67
2018-06-18T07:10:17.001Z,17.80
2018-06-18T07:12:44.554Z,16.20
2018-06-18T07:15:12.168Z,16.47
2018-06-18T07:17:40.175Z,13.93
2018-06-18T07:20:07.756Z,16.30
2018-06-18T07:22:35.326Z,14.30
2018-06-18T07:25:02.912Z,12.30
2018-06-18T07:27:30.422Z,13.00
2018-06-18T07:29:57.952Z,15.50
2018-06-18T07:32:25.484Z,13.20
2018-06-18T07:34:53.012Z,10.73
2018-06-18T07:37:20.577Z,12.07
2018-06-18T07:39:48.117Z,16.83
2018-06-18T07:42:15.641Z,10.17
2018-06-18T07:44:43.185Z,12.53
2018-06-18T07:47:10.728Z,11.27
2018-06-18T07:49:38.291Z,13.83
2018-06-18T07:52:05.846Z,9.70
2018-06-18T07:54:33.398Z,10.30
2018-06-18T07:57:00.954Z,10.20
2018-06-18T07:59:28.548Z,10.60
2018-06-18T08:01:56.103Z,15.90
2018-06-18T08:04:24.047Z,11.13
2018-06-18T08:06:51.680Z,11.87
2018-06-18T08:09:19.242Z,13.00
2018-06-18T08:11:46.790Z,13.07
2018-06-18T08:14:14.340Z,14.60
2018-06-18T08:16:41.882Z,11.43
2018-06-18T08:19:09.437Z,16.33
2018-06-18T08:21:36.996Z,15.83
2018-06-18T08:24:04.784Z,11.33
2018-06-18T08:26:32.321Z,9.90
2018-06-18T08:28:59.856Z,11.47
2018-06-18T08:31:27.386Z,14.53
2018-06-18T08:33:54.947Z,7.00
2018-06-18T08:36:22.477Z,10.27
2018-06-18T08:38:50.025Z,12.60
2018-06-18T08:41:17.603Z,9.00
2018-06-18T08:43:45.131Z,8.90
2018-06-18T08:46:12.676Z,13.30
2018-06-18T08:48:45.905Z,12.23
2018-06-18T08:51:19.027Z,8.63
2018-06-18T08:53:52.175Z,14.53
2018-06-18T08:56:25.433Z,9.00
2018-06-18T08:58:58.698Z,11.27
2018-06-18T09:01:34.177Z,9.67
2018-06-18T09:04:06.340Z,12.43
2018-06-18T09:06:33.863Z,7.87
2018-06-18T09:09:01.391Z,9.30
2018-06-18T09:11:28.955Z,10.03
2018-06-18T09:13:56.500Z,9.10
2018-06-18T09:16:24.048Z,9.97
2018-06-18T09:18:51.878Z,8.43
2018-06-18T09:21:19.463Z,8.40
2018-06-18T09:23:47.062Z,15.13
2018-06-18T09:26:14.609Z,8.10
2018-06-18T09:28:42.181Z,16.13
2018-06-18T09:31:09.702Z,11.50
2018-06-18T09:33:37.322Z,9.03
2018-06-18T09:36:04.893Z,8.33
2018-06-18T09:38:32.447Z,13.57
2018-06-18T09:40:59.998Z,10.87
2018-06-18T09:43:27.539Z,9.37
2018-06-18T09:45:55.063Z,12.43
2018-06-18T09:48:27.179Z,6.43
2018-06-18T09:51:00.378Z,8.53
2018-06-18T09:53:33.580Z,8.77
2018-06-18T09:56:06.702Z,8.53
2018-06-18T09:58:39.798Z,10.13
2018-06-18T10:01:15.606Z,6.00
2018-06-18T10:03:43.255Z,6.00
2018-06-18T10:06:10.796Z,11.93
2018-06-18T10:08:38.419Z,5.60
2018-06-18T10:11:05.929Z,7.37
2018-06-18T10:13:33.454Z,5.43
2018-06-18T10:16:01.020Z,4.83
2018-06-18T10:18:28.624Z,5.10
2018-06-18T10:20:56.220Z,6.07
2018-06-18T10:23:23.743Z,7.83
2018-06-18T10:25:51.283Z,5.87
2018-06-18T10:28:18.855Z,6.93
2018-06-18T10:30:46.430Z,10.47
2018-06-18T10:33:19.603Z,5.67
2018-06-18T10:35:52.779Z,8.50
2018-06-18T10:38:26.035Z,5.33
2018-06-18T10:40:59.151Z,5.20
2018-06-18T10:43:30.233Z,10.43
2018-06-18T10:45:57.782Z,6.03
2018-06-18T10:48:25.507Z,8.27
2018-06-18T10:50:53.904Z,6.77
2018-06-18T10:53:21.613Z,7.27
2018-06-18T10:55:49.177Z,8.60
2018-06-18T10:58:16.858Z,7.30
2018-06-18T11:00:46.273Z,12.60
2018-06-18T11:03:14.011Z,10.03
2018-06-18T11:05:47.023Z,7.43
2018-06-18T11:08:14.590Z,7.40
2018-06-18T11:10:42.106Z,8.37
2018-06-18T11:13:09.632Z,6.53
2018-06-18T11:15:37.159Z,6.60
2018-06-18T11:18:10.257Z,10.57
2018-06-18T11:20:43.507Z,11.03
2018-06-18T11:23:16.727Z,7.43
2018-06-18T11:25:49.873Z,13.53
2018-06-18T11:28:17.469Z,8.67
2018-06-18T11:30:44.953Z,8.10
2018-06-18T11:33:12.506Z,7.43
2018-06-18T11:35:40.072Z,11.57
2018-06-18T11:38:07.625Z,6.63
2018-06-18T11:40:35.163Z,11.80
2018-06-18T11:43:02.716Z,8.43
2018-06-18T11:45:30.312Z,5.70
2018-06-18T11:48:22.511Z,6.43
2018-06-18T11:50:50.285Z,11.47
2018-06-18T11:53:18.578Z,10.57
2018-06-18T11:55:46.172Z,5.53
2018-06-18T11:58:18.488Z,4.67
2018-06-18T12:00:51.668Z,7.13
2018-06-18T12:03:24.981Z,4.80
2018-06-18T12:05:57.958Z,7.40
2018-06-18T12:08:31.058Z,6.43
2018-06-18T12:10:58.692Z,12.10
2018-06-18T12:13:26.248Z,8.97
2018-06-18T12:15:53.772Z,4.90
2018-06-18T12:18:21.320Z,5.33
2018-06-18T12:20:48.909Z,9.97
2018-06-18T12:23:16.439Z,11.03
2018-06-18T12:25:44.020Z,9.23
2018-06-18T12:28:11.627Z,10.33
2018-06-18T12:30:39.144Z,12.60
2018-06-18T12:33:06.722Z,7.70
2018-06-18T12:35:34.288Z,4.33
2018-06-18T12:38:01.854Z,8.60
2018-06-18T12:40:29.399Z,5.37
2018-06-18T12:42:57.004Z,9.80
2018-06-18T12:45:30.194Z,8.43
2018-06-18T12:48:03.371Z,5.03
2018-06-18T12:50:36.533Z,4.03
2018-06-18T12:53:09.835Z,8.13
2018-06-18T12:55:43.008Z,6.57
2018-06-18T12:58:10.616Z,8.40
2018-06-18T13:00:38.224Z,4.63
2018-06-18T13:03:10.427Z,5.87
2018-06-18T13:05:38.050Z,4.70
2018-06-18T13:08:05.684Z,10.97
2018-06-18T13:10:33.291Z,4.83
2018-06-18T13:13:00.858Z,7.40
2018-06-18T13:15:28.519Z,8.90
2018-06-18T13:17:56.087Z,3.93
2018-06-18T13:20:23.715Z,12.87
2018-06-18T13:22:51.259Z,6.30
2018-06-18T13:25:18.865Z,6.10
2018-06-18T13:27:52.052Z,9.77
2018-06-18T13:30:19.862Z,4.20
2018-06-18T13:32:47.422Z,8.83
2018-06-18T13:35:15.001Z,12.70
2018-06-18T13:37:48.191Z,8.67
2018-06-18T13:42:26.194Z,10.90
2018-06-18T13:44:59.288Z,17.37
2018-06-18T13:47:32.331Z,5.80
2018-06-18T13:49:59.916Z,7.03
2018-06-18T13:52:27.540Z,7.20
2018-06-18T13:54:55.195Z,6.03
2018-06-18T13:57:23.111Z,13.40
2018-06-18T13:59:50.665Z,5.87
2018-06-18T14:02:18.311Z,7.07
2018-06-18T14:04:45.899Z,5.50
2018-06-18T14:07:13.469Z,16.17
2018-06-18T14:09:41.017Z,5.47
2018-06-18T14:12:08.538Z,6.27
2018-06-18T14:14:36.147Z,7.50
2018-06-18T14:17:03.835Z,9.40
2018-06-18T14:19:36.919Z,9.20
2018-06-18T14:22:04.469Z,11.53
2018-06-18T14:24:32.030Z,6.90
2018-06-18T14:26:59.603Z,8.67
2018-06-18T14:29:32.642Z,7.33
2018-06-18T14:32:00.119Z,8.40
2018-06-18T14:34:33.200Z,6.90
2018-06-18T14:37:06.337Z,7.83
2018-06-18T14:39:39.489Z,9.43
2018-06-18T14:42:08.074Z,8.47
2018-06-18T14:44:36.478Z,9.20
2018-06-18T14:47:04.073Z,8.27
2018-06-18T14:49:31.557Z,10.47
2018-06-18T14:51:59.128Z,6.90
2018-06-18T14:54:26.808Z,5.80
2018-06-18T14:56:56.328Z,8.53
2018-06-18T14:59:31.035Z,9.90
2018-06-18T15:01:58.858Z,7.67
2018-06-18T15:04:26.384Z,7.00
2018-06-18T15:06:53.942Z,8.60
2018-06-18T15:09:21.543Z,9.20
2018-06-18T15:11:49.131Z,10.43
2018-06-18T15:14:16.734Z,8.80
2018-06-18T15:16:44.270Z,15.43
2018-06-18T15:19:11.853Z,10.77
2018-06-18T15:21:45.784Z,13.50
2018-06-18T15:24:17.335Z,13.33
2018-06-18T15:26:44.905Z,19.30
2018-06-18T15:29:12.448Z,15.47
2018-06-18T15:31:40.018Z,8.77
2018-06-18T15:34:07.588Z,11.03
2018-06-18T15:36:35.155Z,13.40
2018-06-18T15:39:02.970Z,9.60
2018-06-18T15:41:30.553Z,10.70
2018-06-18T15:43:58.329Z,8.00
2018-06-18T15:46:25.807Z,9.17
2018-06-18T15:48:53.355Z,11.57
2018-06-18T15:51:20.950Z,8.93
2018-06-18T15:53:48.511Z,12.93
2018-06-18T15:56:16.082Z,8.97
2018-06-18T15:58:43.631Z,20.73
2018-06-18T16:01:11.170Z,11.43
2018-06-18T16:03:38.723Z,13.10
2018-06-18T16:06:06.337Z,8.87
2018-06-18T16:08:33.916Z,13.83
2018-06-18T16:11:01.493Z,6.70
2018-06-18T16:13:29.087Z,18.13
2018-06-18T16:15:56.631Z,14.73
2018-06-18T16:18:24.187Z,8.40
2018-06-18T16:20:51.782Z,5.00
2018-06-18T16:23:19.331Z,7.83
2018-06-18T16:25:46.942Z,5.90
2018-06-18T16:28:14.496Z,25.97
2018-06-18T16:30:42.054Z,11.43
2018-06-18T16:33:09.635Z,10.90
2018-06-18T16:35:37.214Z,10.13
2018-06-18T16:38:04.832Z,10.17
2018-06-18T16:40:32.378Z,11.10
2018-06-18T16:42:59.986Z,11.37
2018-06-18T16:45:27.558Z,14.23
2018-06-18T16:47:55.130Z,8.90
2018-06-18T16:50:22.750Z,9.37
2018-06-18T16:52:50.294Z,9.43
2018-06-18T16:55:17.915Z,13.97
2018-06-18T16:57:45.418Z,9.63
2018-06-18T17:00:12.986Z,11.00
2018-06-18T17:02:40.637Z,6.33
2018-06-18T17:05:08.236Z,5.33
2018-06-18T17:07:35.793Z,10.83
2018-06-18T17:10:03.490Z,10.53
2018-06-18T17:12:31.067Z,10.83
2018-06-18T17:14:58.679Z,10.43
2018-06-18T17:17:26.317Z,12.90
2018-06-18T17:19:53.910Z,9.53
2018-06-18T17:22:21.483Z,8.43
2018-06-18T17:24:49.092Z,11.50
2018-06-18T17:27:16.686Z,9.33
2018-06-18T17:29:44.264Z,11.30
2018-06-18T17:32:11.882Z,10.37
2018-06-18T17:34:39.546Z,11.57
2018-06-18T17:37:07.168Z,8.13
2018-06-18T17:39:34.807Z,13.30
2018-06-18T17:42:02.450Z,9.83
2018-06-18T17:44:30.075Z,11.17
2018-06-18T17:46:57.663Z,9.20
2018-06-18T17:49:25.273Z,9.90
2018-06-18T17:51:53.065Z,10.27
2018-06-18T17:54:20.773Z,11.40
2018-06-18T17:56:48.377Z,10.47
2018-06-18T17:59:15.976Z,18.40
2018-06-18T18:01:43.721Z,9.07
2018-06-18T18:04:11.338Z,11.27
2018-06-18T18:06:39.052Z,11.40
2018-06-18T18:09:08.479Z,9.60
2018-06-18T18:11:36.269Z,8.87
2018-06-18T18:14:03.953Z,7.47
2018-06-18T18:16:31.609Z,13.03
2018-06-18T18:18:59.279Z,12.10
2018-06-18T18:21:27.001Z,9.93
2018-06-18T18:23:54.911Z,18.13
2018-06-18T18:26:22.609Z,12.20
2018-06-18T18:28:51.102Z,17.20
2018-06-18T18:31:19.363Z,8.57
2018-06-18T18:33:47.066Z,8.63
2018-06-18T18:36:14.713Z,10.50
2018-06-18T18:38:42.349Z,18.93
2018-06-18T18:41:09.920Z,9.00
2018-06-18T18:43:37.693Z,14.00
2018-06-18T18:46:05.760Z,8.37
2018-06-18T18:48:34.038Z,9.50
2018-06-18T18:51:02.710Z,9.50
2018-06-18T18:53:30.684Z,10.43
2018-06-18T18:56:09.492Z,8.10
2018-06-18T18:59:42.595Z,13.23
2018-06-18T19:02:10.507Z,9.20
2018-06-18T19:04:44.938Z,12.30
2018-06-18T19:07:13.268Z,12.07
2018-06-18T19:09:45.092Z,9.20
2018-06-18T19:12:12.719Z,10.77
2018-06-18T19:14:40.392Z,8.30
2018-06-18T19:17:08.065Z,13.50
2018-06-18T19:20:11.558Z,14.00
2018-06-18T19:22:39.507Z,11.10
2018-06-18T19:25:07.179Z,12.47
2018-06-18T19:27:35.933Z,8.40
2018-06-18T19:32:32.017Z,11.07
2018-06-18T19:34:59.775Z,17.70
2018-06-18T19:37:27.514Z,10.50
2018-06-18T19:39:55.460Z,10.80
2018-06-18T19:42:23.691Z,9.97
2018-06-18T19:44:51.332Z,8.87
2018-06-18T19:47:34.498Z,13.90
2018-06-18T19:50:02.141Z,22.53
2018-06-18T19:52:30.515Z,13.10
2018-06-18T19:55:02.028Z,13.53
2018-06-18T19:57:30.062Z,10.37
2018-06-18T19:59:57.806Z,13.03
2018-06-18T20:02:25.574Z,16.83
2018-06-18T20:04:53.227Z,11.63
2018-06-18T20:07:22.274Z,21.27
2018-06-18T20:09:49.971Z,12.07
2018-06-18T20:12:17.633Z,14.53
2018-06-18T20:14:45.448Z,13.10
2018-06-18T20:17:13.099Z,10.83
2018-06-18T20:19:41.027Z,11.47
2018-06-18T20:22:08.708Z,16.20
2018-06-18T20:24:37.998Z,12.63
2018-06-18T20:27:05.684Z,16.77
2018-06-18T20:29:33.311Z,11.90
2018-06-18T20:32:01.073Z,13.67
2018-06-18T20:34:28.719Z,18.90
2018-06-18T20:36:56.389Z,14.07
2018-06-18T20:39:24.290Z,14.10
2018-06-18T20:41:51.903Z,13.80
2018-06-18T20:44:21.422Z,14.77
2018-06-18T20:46:49.051Z,21.70
2018-06-18T20:49:16.784Z,13.70
2018-06-18T20:51:44.852Z,13.60
2018-06-18T20:54:12.680Z,14.67
2018-06-18T20:56:40.604Z,15.73
2018-06-18T20:59:09.781Z,12.90
2018-06-18T21:01:37.435Z,13.50
2018-06-18T21:04:05.168Z,15.30
2018-06-18T21:06:32.722Z,15.93
2018-06-18T21:09:00.288Z,13.10
2018-06-18T21:11:27.855Z,17.70
2018-06-18T21:13:55.636Z,13.80
2018-06-18T21:16:23.181Z,13.60
2018-06-18T21:18:50.804Z,13.90
2018-06-18T21:21:18.339Z,15.27
2018-06-18T21:23:45.886Z,16.63
2018-06-18T21:26:13.394Z,14.57
2018-06-18T21:28:40.968Z,12.97
2018-06-18T21:31:08.531Z,18.33
2018-06-18T21:33:36.167Z,15.20
2018-06-18T21:36:03.802Z,21.63
2018-06-18T21:38:31.338Z,16.43
2018-06-18T21:40:58.921Z,12.00
2018-06-18T21:43:26.673Z,16.17
2018-06-18T21:45:54.290Z,18.60
2018-06-18T21:48:21.819Z,14.47
2018-06-18T21:50:49.358Z,16.40
2018-06-18T21:53:16.933Z,20.30
2018-06-18T21:55:44.518Z,17.20
2018-06-18T21:58:12.157Z,13.80
2018-06-18T22:00:44.287Z,14.23
2018-06-18T22:03:11.795Z,17.63
2018-06-18T22:05:39.447Z,16.40
2018-06-18T22:08:08.873Z,21.13
2018-06-18T22:10:36.433Z,14.60
2018-06-18T22:13:04.097Z,18.40
2018-06-18T22:15:31.687Z,15.83
2018-06-18T22:17:59.222Z,22.80
2018-06-18T22:20:26.941Z,18.60
2018-06-18T22:22:54.501Z,14.23
2018-06-18T22:25:22.060Z,18.10
2018-06-18T22:27:49.656Z,16.50
2018-06-18T22:30:17.281Z,17.00
2018-06-18T22:32:44.806Z,15.57
2018-06-18T22:35:12.517Z,16.90
2018-06-18T22:37:40.041Z,18.07
2018-06-18T22:40:07.683Z,17.80
2018-06-18T22:42:35.247Z,27.50
2018-06-18T22:45:02.853Z,17.93
2018-06-18T22:47:30.419Z,24.73
2018-06-18T22:49:58.019Z,20.77
2018-06-18T22:52:25.571Z,22.00
2018-06-18T22:54:53.121Z,17.53
2018-06-18T22:57:20.723Z,20.93
2018-06-18T22:59:48.291Z,16.73
2018-06-18T23:02:18.826Z,14.70
2018-06-18T23:04:46.369Z,22.70
2018-06-18T23:07:14.021Z,18.10
2018-06-18T23:09:41.587Z,17.47
2018-06-18T23:12:09.156Z,17.40
2018-06-18T23:14:37.150Z,19.90
2018-06-18T23:17:04.752Z,20.27
2018-06-18T23:19:32.394Z,20.70
2018-06-18T23:22:00.835Z,15.63
2018-06-18T23:24:28.416Z,17.40
2018-06-18T23:26:56.029Z,17.63
2018-06-18T23:29:23.602Z,19.80
2018-06-18T23:31:51.166Z,18.37
2018-06-18T23:34:18.770Z,15.70
2018-06-18T23:36:46.376Z,20.00
2018-06-18T23:39:13.916Z,17.07
2018-06-18T23:41:44.586Z,24.43
2018-06-18T23:44:12.141Z,21.23
2018-06-18T23:46:39.653Z,20.30
2018-06-18T23:49:07.221Z,19.63
2018-06-18T23:51:34.775Z,18.50
2018-06-18T23:54:02.345Z,15.90
2018-06-18T23:56:29.917Z,15.57
2018-06-18T23:58:57.472Z,20.40
